sensor_id;sensor_type;location;lat;lon;timestamp;pressure;altitude;pressure_sealevel;temperature;humidity
66176;BME280;52977;44.816;20.538;2023-02-27T00:01:33;99410.25;;;2.60;100.00
66176;BME280;52977;44.816;20.538;2023-02-27T00:04:14;99337.25;;;1.80;100.00
66176;BME280;52977;44.816;20.538;2023-02-27T00:06:40;99434.84;;;2.37;100.00
66176;BME280;52977;44.816;20.538;2023-02-27T00:09:06;99419.50;;;2.38;100.00
66176;BME280;52977;44.816;20.538;2023-02-27T00:11:33;99396.69;;;1.99;100.00
66176;BME280;52977;44.816;20.538;2023-02-27T00:13:59;99372.00;;;1.56;100.00
66176;BME280;52977;44.816;20.538;2023-02-27T00:16:25;99448.09;;;2.24;100.00
66176;BME280;52977;44.816;20.538;2023-02-27T00:18:52;99434.69;;;1.93;100.00
66176;BME280;52977;44.816;20.538;2023-02-27T00:21:18;99444.88;;;2.11;100.00
66176;BME280;52977;44.816;20.538;2023-02-27T00:23:45;99453.47;;;2.18;100.00
66176;BME280;52977;44.816;20.538;2023-02-27T00:26:12;99452.69;;;2.08;100.00
66176;BME280;52977;44.816;20.538;2023-02-27T00:28:39;99370.38;;;1.24;100.00
66176;BME280;52977;44.816;20.538;2023-02-27T00:31:05;99303.16;;;0.73;100.00
66176;BME280;52977;44.816;20.538;2023-02-27T00:33:31;99413.72;;;1.48;100.00
66176;BME280;52977;44.816;20.538;2023-02-27T00:35:59;99400.22;;;1.38;100.00
66176;BME280;52977;44.816;20.538;2023-02-27T00:38:26;99464.00;;;1.53;100.00
66176;BME280;52977;44.816;20.538;2023-02-27T00:40:52;99430.09;;;1.16;100.00
66176;BME280;52977;44.816;20.538;2023-02-27T00:43:19;99384.59;;;0.94;100.00
66176;BME280;52977;44.816;20.538;2023-02-27T00:45:46;99388.34;;;0.88;100.00
66176;BME280;52977;44.816;20.538;2023-02-27T00:48:13;99430.34;;;1.25;100.00
66176;BME280;52977;44.816;20.538;2023-02-27T00:50:40;99454.81;;;1.28;100.00
66176;BME280;52977;44.816;20.538;2023-02-27T00:53:06;99446.44;;;1.14;100.00
66176;BME280;52977;44.816;20.538;2023-02-27T00:55:33;99451.03;;;1.14;100.00
66176;BME280;52977;44.816;20.538;2023-02-27T00:57:59;99345.22;;;0.36;100.00
66176;BME280;52977;44.816;20.538;2023-02-27T01:00:25;99463.44;;;1.30;100.00
66176;BME280;52977;44.816;20.538;2023-02-27T01:02:52;99473.31;;;0.94;100.00
66176;BME280;52977;44.816;20.538;2023-02-27T01:05:19;99483.59;;;1.17;100.00
66176;BME280;52977;44.816;20.538;2023-02-27T01:07:45;99406.06;;;0.83;100.00
66176;BME280;52977;44.816;20.538;2023-02-27T01:10:12;99449.69;;;1.06;100.00
66176;BME280;52977;44.816;20.538;2023-02-27T01:12:39;99475.53;;;1.28;100.00
66176;BME280;52977;44.816;20.538;2023-02-27T01:15:06;99448.59;;;1.02;100.00
66176;BME280;52977;44.816;20.538;2023-02-27T01:17:34;99504.91;;;1.50;100.00
66176;BME280;52977;44.816;20.538;2023-02-27T01:20:04;99475.00;;;1.26;100.00
66176;BME280;52977;44.816;20.538;2023-02-27T01:22:30;99459.38;;;1.17;100.00
66176;BME280;52977;44.816;20.538;2023-02-27T01:24:58;99484.16;;;1.40;100.00
66176;BME280;52977;44.816;20.538;2023-02-27T01:27:24;99511.06;;;1.50;100.00
66176;BME280;52977;44.816;20.538;2023-02-27T01:29:50;99436.19;;;0.85;100.00
66176;BME280;52977;44.816;20.538;2023-02-27T01:32:17;99509.16;;;1.20;100.00
66176;BME280;52977;44.816;20.538;2023-02-27T01:34:43;99480.22;;;0.79;100.00
66176;BME280;52977;44.816;20.538;2023-02-27T01:37:10;99476.69;;;0.68;100.00
66176;BME280;52977;44.816;20.538;2023-02-27T01:39:36;99542.44;;;1.09;100.00
66176;BME280;52977;44.816;20.538;2023-02-27T01:42:09;99549.19;;;1.16;100.00
66176;BME280;52977;44.816;20.538;2023-02-27T01:45:06;99559.88;;;1.01;100.00
66176;BME280;52977;44.816;20.538;2023-02-27T01:47:35;99478.22;;;0.49;100.00
66176;BME280;52977;44.816;20.538;2023-02-27T01:50:03;99565.28;;;1.06;100.00
66176;BME280;52977;44.816;20.538;2023-02-27T01:52:31;99534.50;;;0.76;100.00
66176;BME280;52977;44.816;20.538;2023-02-27T01:54:59;99551.19;;;0.83;100.00
66176;BME280;52977;44.816;20.538;2023-02-27T01:57:25;99470.41;;;0.42;100.00
66176;BME280;52977;44.816;20.538;2023-02-27T01:59:51;99590.59;;;1.15;100.00
66176;BME280;52977;44.816;20.538;2023-02-27T02:02:23;99539.81;;;0.71;100.00
66176;BME280;52977;44.816;20.538;2023-02-27T02:04:50;99528.91;;;0.88;100.00
66176;BME280;52977;44.816;20.538;2023-02-27T02:07:18;99505.78;;;0.87;100.00
66176;BME280;52977;44.816;20.538;2023-02-27T02:09:51;99477.41;;;0.48;100.00
66176;BME280;52977;44.816;20.538;2023-02-27T02:12:20;99592.97;;;1.07;100.00
66176;BME280;52977;44.816;20.538;2023-02-27T02:14:47;99533.63;;;0.60;100.00
66176;BME280;52977;44.816;20.538;2023-02-27T02:17:30;99580.31;;;1.02;100.00
66176;BME280;52977;44.816;20.538;2023-02-27T02:20:25;99618.88;;;1.23;100.00
66176;BME280;52977;44.816;20.538;2023-02-27T02:42:26;99601.63;;;0.71;100.00
66176;BME280;52977;44.816;20.538;2023-02-27T02:44:58;99652.56;;;0.88;100.00
66176;BME280;52977;44.816;20.538;2023-02-27T02:47:55;99657.44;;;0.96;100.00
66176;BME280;52977;44.816;20.538;2023-02-27T02:51:03;99655.50;;;0.87;100.00
66176;BME280;52977;44.816;20.538;2023-02-27T02:53:32;99667.84;;;0.88;100.00
66176;BME280;52977;44.816;20.538;2023-02-27T03:01:49;99578.34;;;0.44;100.00
66176;BME280;52977;44.816;20.538;2023-02-27T03:04:23;99629.75;;;0.53;100.00
66176;BME280;52977;44.816;20.538;2023-02-27T03:07:20;99698.03;;;1.00;100.00
66176;BME280;52977;44.816;20.538;2023-02-27T03:09:52;99659.69;;;0.72;100.00
66176;BME280;52977;44.816;20.538;2023-02-27T03:12:22;99656.75;;;0.74;100.00
66176;BME280;52977;44.816;20.538;2023-02-27T03:15:02;99622.84;;;0.30;100.00
66176;BME280;52977;44.816;20.538;2023-02-27T03:17:43;99678.53;;;0.77;100.00
66176;BME280;52977;44.816;20.538;2023-02-27T03:20:16;99677.31;;;0.58;100.00
66176;BME280;52977;44.816;20.538;2023-02-27T03:22:46;99641.28;;;0.54;100.00
66176;BME280;52977;44.816;20.538;2023-02-27T03:25:13;99608.81;;;0.23;100.00
66176;BME280;52977;44.816;20.538;2023-02-27T03:28:03;99744.06;;;1.04;100.00
66176;BME280;52977;44.816;20.538;2023-02-27T03:30:35;99730.50;;;0.93;100.00
66176;BME280;52977;44.816;20.538;2023-02-27T03:33:17;99716.38;;;0.71;100.00
66176;BME280;52977;44.816;20.538;2023-02-27T03:36:03;99662.13;;;0.41;100.00
66176;BME280;52977;44.816;20.538;2023-02-27T03:38:34;99744.19;;;0.87;100.00
66176;BME280;52977;44.816;20.538;2023-02-27T03:46:28;99766.75;;;0.85;100.00
66176;BME280;52977;44.816;20.538;2023-02-27T03:48:54;99775.88;;;0.84;100.00
66176;BME280;52977;44.816;20.538;2023-02-27T03:51:22;99720.50;;;0.51;100.00
66176;BME280;52977;44.816;20.538;2023-02-27T03:56:49;99790.03;;;1.07;100.00
66176;BME280;52977;44.816;20.538;2023-02-27T03:59:16;99776.53;;;0.97;100.00
66176;BME280;52977;44.816;20.538;2023-02-27T04:01:48;99684.84;;;0.28;100.00
66176;BME280;52977;44.816;20.538;2023-02-27T04:04:16;99786.22;;;0.98;100.00
66176;BME280;52977;44.816;20.538;2023-02-27T04:20:57;99783.28;;;0.72;100.00
66176;BME280;52977;44.816;20.538;2023-02-27T04:23:52;99797.69;;;0.88;100.00
66176;BME280;52977;44.816;20.538;2023-02-27T04:26:26;99818.75;;;1.01;100.00
66176;BME280;52977;44.816;20.538;2023-02-27T04:28:58;99817.22;;;1.11;100.00
66176;BME280;52977;44.816;20.538;2023-02-27T04:32:05;99813.97;;;1.09;100.00
66176;BME280;52977;44.816;20.538;2023-02-27T04:34:38;99794.78;;;0.95;100.00
66176;BME280;52977;44.816;20.538;2023-02-27T04:37:21;99824.47;;;1.10;100.00
66176;BME280;52977;44.816;20.538;2023-02-27T04:39:53;99816.53;;;0.93;100.00
66176;BME280;52977;44.816;20.538;2023-02-27T04:42:24;99747.91;;;0.26;100.00
66176;BME280;52977;44.816;20.538;2023-02-27T04:44:55;99741.94;;;0.19;100.00
66176;BME280;52977;44.816;20.538;2023-02-27T04:47:24;99871.22;;;1.04;100.00
66176;BME280;52977;44.816;20.538;2023-02-27T04:50:18;99858.56;;;1.05;100.00
66176;BME280;52977;44.816;20.538;2023-02-27T04:52:47;99859.72;;;0.81;100.00
66176;BME280;52977;44.816;20.538;2023-02-27T04:55:20;99850.09;;;0.91;100.00
66176;BME280;52977;44.816;20.538;2023-02-27T04:57:58;99872.88;;;1.10;100.00
66176;BME280;52977;44.816;20.538;2023-02-27T05:00:26;99855.72;;;1.16;100.00
66176;BME280;52977;44.816;20.538;2023-02-27T05:02:59;99803.97;;;0.72;100.00
66176;BME280;52977;44.816;20.538;2023-02-27T05:05:28;99884.50;;;1.16;100.00
66176;BME280;52977;44.816;20.538;2023-02-27T05:08:07;99897.38;;;1.14;100.00
66176;BME280;52977;44.816;20.538;2023-02-27T05:10:45;99897.06;;;1.10;100.00
66176;BME280;52977;44.816;20.538;2023-02-27T05:13:19;99904.22;;;1.27;100.00
66176;BME280;52977;44.816;20.538;2023-02-27T05:15:53;99923.63;;;1.34;100.00
66176;BME280;52977;44.816;20.538;2023-02-27T05:18:22;99890.09;;;1.09;100.00
66176;BME280;52977;44.816;20.538;2023-02-27T05:21:28;99921.72;;;1.29;100.00
66176;BME280;52977;44.816;20.538;2023-02-27T05:24:07;99924.81;;;1.43;100.00
66176;BME280;52977;44.816;20.538;2023-02-27T05:29:41;99942.00;;;1.42;100.00
66176;BME280;52977;44.816;20.538;2023-02-27T05:35:15;99879.66;;;0.91;100.00
66176;BME280;52977;44.816;20.538;2023-02-27T05:38:04;99968.72;;;1.22;100.00
66176;BME280;52977;44.816;20.538;2023-02-27T05:40:36;99974.59;;;1.18;100.00
66176;BME280;52977;44.816;20.538;2023-02-27T05:43:15;99968.31;;;1.35;100.00
66176;BME280;52977;44.816;20.538;2023-02-27T05:45:47;99953.41;;;1.22;100.00
66176;BME280;52977;44.816;20.538;2023-02-27T05:48:18;99983.59;;;1.29;100.00
66176;BME280;52977;44.816;20.538;2023-02-27T05:50:48;99978.47;;;1.28;100.00
66176;BME280;52977;44.816;20.538;2023-02-27T05:53:17;99979.59;;;1.32;100.00
66176;BME280;52977;44.816;20.538;2023-02-27T05:55:50;99960.28;;;1.13;100.00
66176;BME280;52977;44.816;20.538;2023-02-27T05:58:39;99970.84;;;1.19;100.00
66176;BME280;52977;44.816;20.538;2023-02-27T06:01:09;99979.53;;;1.27;100.00
66176;BME280;52977;44.816;20.538;2023-02-27T06:03:37;99911.41;;;0.66;100.00
66176;BME280;52977;44.816;20.538;2023-02-27T06:06:06;100009.06;;;1.49;100.00
66176;BME280;52977;44.816;20.538;2023-02-27T06:08:34;99989.78;;;1.30;100.00
66176;BME280;52977;44.816;20.538;2023-02-27T06:11:00;99991.13;;;1.05;100.00
66176;BME280;52977;44.816;20.538;2023-02-27T06:13:27;100017.34;;;1.42;100.00
66176;BME280;52977;44.816;20.538;2023-02-27T06:15:53;99978.81;;;1.09;100.00
66176;BME280;52977;44.816;20.538;2023-02-27T06:18:19;100021.13;;;1.41;100.00
66176;BME280;52977;44.816;20.538;2023-02-27T06:20:46;100044.88;;;1.49;100.00
66176;BME280;52977;44.816;20.538;2023-02-27T06:23:13;99958.44;;;1.13;100.00
66176;BME280;52977;44.816;20.538;2023-02-27T06:25:39;100025.16;;;1.44;100.00
66176;BME280;52977;44.816;20.538;2023-02-27T06:28:07;100021.59;;;1.38;100.00
66176;BME280;52977;44.816;20.538;2023-02-27T06:30:34;99998.19;;;1.11;100.00
66176;BME280;52977;44.816;20.538;2023-02-27T06:33:00;99970.50;;;1.11;100.00
66176;BME280;52977;44.816;20.538;2023-02-27T06:35:26;99980.03;;;1.24;100.00
66176;BME280;52977;44.816;20.538;2023-02-27T06:37:54;100055.28;;;1.68;100.00
66176;BME280;52977;44.816;20.538;2023-02-27T06:40:19;100056.34;;;1.67;100.00
66176;BME280;52977;44.816;20.538;2023-02-27T06:42:45;99996.50;;;1.05;100.00
66176;BME280;52977;44.816;20.538;2023-02-27T06:45:12;100029.25;;;1.24;100.00
66176;BME280;52977;44.816;20.538;2023-02-27T06:47:39;100071.47;;;1.24;100.00
66176;BME280;52977;44.816;20.538;2023-02-27T06:50:11;100032.25;;;0.83;100.00
66176;BME280;52977;44.816;20.538;2023-02-27T06:52:39;100081.19;;;1.25;100.00
66176;BME280;52977;44.816;20.538;2023-02-27T06:55:06;100084.28;;;1.61;100.00
66176;BME280;52977;44.816;20.538;2023-02-27T06:57:33;100071.19;;;1.47;100.00
66176;BME280;52977;44.816;20.538;2023-02-27T07:00:00;100080.50;;;1.62;100.00
66176;BME280;52977;44.816;20.538;2023-02-27T07:02:26;100050.88;;;1.57;100.00
66176;BME280;52977;44.816;20.538;2023-02-27T07:04:52;100056.53;;;1.60;100.00
66176;BME280;52977;44.816;20.538;2023-02-27T07:07:18;100039.31;;;1.34;100.00
66176;BME280;52977;44.816;20.538;2023-02-27T07:09:47;100095.41;;;1.69;100.00
66176;BME280;52977;44.816;20.538;2023-02-27T07:12:14;100067.72;;;1.47;100.00
66176;BME280;52977;44.816;20.538;2023-02-27T07:14:40;100088.22;;;1.31;100.00
66176;BME280;52977;44.816;20.538;2023-02-27T07:17:07;100056.66;;;1.21;100.00
66176;BME280;52977;44.816;20.538;2023-02-27T07:19:33;100085.84;;;1.57;100.00
66176;BME280;52977;44.816;20.538;2023-02-27T07:22:00;100065.84;;;1.25;100.00
66176;BME280;52977;44.816;20.538;2023-02-27T07:24:26;100076.56;;;0.98;100.00
66176;BME280;52977;44.816;20.538;2023-02-27T07:26:53;100034.31;;;0.76;100.00
66176;BME280;52977;44.816;20.538;2023-02-27T07:29:19;100087.28;;;1.42;100.00
66176;BME280;52977;44.816;20.538;2023-02-27T07:31:46;100093.16;;;1.39;100.00
66176;BME280;52977;44.816;20.538;2023-02-27T07:34:13;99998.06;;;0.57;100.00
66176;BME280;52977;44.816;20.538;2023-02-27T07:36:41;100049.84;;;0.91;100.00
66176;BME280;52977;44.816;20.538;2023-02-27T07:39:08;100121.78;;;1.73;100.00
66176;BME280;52977;44.816;20.538;2023-02-27T07:41:36;100120.91;;;1.89;100.00
66176;BME280;52977;44.816;20.538;2023-02-27T07:44:03;100138.00;;;2.05;100.00
66176;BME280;52977;44.816;20.538;2023-02-27T07:46:31;100135.53;;;1.98;100.00
66176;BME280;52977;44.816;20.538;2023-02-27T07:48:58;100143.94;;;1.80;100.00
66176;BME280;52977;44.816;20.538;2023-02-27T07:51:24;100130.19;;;1.76;100.00
66176;BME280;52977;44.816;20.538;2023-02-27T07:53:50;100144.16;;;2.00;100.00
66176;BME280;52977;44.816;20.538;2023-02-27T07:56:17;100146.56;;;1.97;100.00
66176;BME280;52977;44.816;20.538;2023-02-27T07:58:43;100150.84;;;1.98;100.00
66176;BME280;52977;44.816;20.538;2023-02-27T08:01:10;100157.41;;;1.80;100.00
66176;BME280;52977;44.816;20.538;2023-02-27T08:03:36;100099.69;;;1.43;100.00
66176;BME280;52977;44.816;20.538;2023-02-27T08:06:03;100130.44;;;1.75;100.00
66176;BME280;52977;44.816;20.538;2023-02-27T08:08:29;100122.31;;;1.69;100.00
66176;BME280;52977;44.816;20.538;2023-02-27T08:10:56;100149.38;;;1.85;100.00
66176;BME280;52977;44.816;20.538;2023-02-27T08:13:22;100135.06;;;1.79;100.00
66176;BME280;52977;44.816;20.538;2023-02-27T08:15:48;100130.03;;;1.88;100.00
66176;BME280;52977;44.816;20.538;2023-02-27T08:18:15;100072.06;;;1.26;100.00
66176;BME280;52977;44.816;20.538;2023-02-27T08:20:40;100055.97;;;1.09;100.00
66176;BME280;52977;44.816;20.538;2023-02-27T08:23:06;100141.34;;;1.63;100.00
66176;BME280;52977;44.816;20.538;2023-02-27T08:25:33;100152.09;;;1.63;100.00
66176;BME280;52977;44.816;20.538;2023-02-27T08:27:59;100139.78;;;1.67;100.00
66176;BME280;52977;44.816;20.538;2023-02-27T08:30:25;100108.88;;;1.47;100.00
66176;BME280;52977;44.816;20.538;2023-02-27T08:32:52;100160.41;;;1.83;100.00
66176;BME280;52977;44.816;20.538;2023-02-27T08:35:18;100120.88;;;1.62;100.00
66176;BME280;52977;44.816;20.538;2023-02-27T08:37:44;100108.66;;;1.76;100.00
66176;BME280;52977;44.816;20.538;2023-02-27T08:40:11;100133.16;;;1.80;100.00
66176;BME280;52977;44.816;20.538;2023-02-27T08:42:37;100164.13;;;2.04;100.00
66176;BME280;52977;44.816;20.538;2023-02-27T08:45:04;100170.31;;;2.05;100.00
66176;BME280;52977;44.816;20.538;2023-02-27T08:47:30;100136.13;;;1.78;100.00
66176;BME280;52977;44.816;20.538;2023-02-27T08:49:57;100116.16;;;1.74;100.00
66176;BME280;52977;44.816;20.538;2023-02-27T08:52:23;100188.44;;;2.10;100.00
66176;BME280;52977;44.816;20.538;2023-02-27T08:54:50;100188.75;;;1.91;100.00
66176;BME280;52977;44.816;20.538;2023-02-27T08:57:22;100198.03;;;1.78;100.00
66176;BME280;52977;44.816;20.538;2023-02-27T08:59:48;100209.56;;;1.96;100.00
66176;BME280;52977;44.816;20.538;2023-02-27T09:02:15;100126.25;;;1.62;100.00
66176;BME280;52977;44.816;20.538;2023-02-27T09:04:41;100158.84;;;1.87;100.00
66176;BME280;52977;44.816;20.538;2023-02-27T09:07:08;100193.66;;;2.21;97.33
66176;BME280;52977;44.816;20.538;2023-02-27T09:09:35;100210.88;;;2.20;99.08
66176;BME280;52977;44.816;20.538;2023-02-27T09:12:02;100205.81;;;2.24;96.87
66176;BME280;52977;44.816;20.538;2023-02-27T09:14:28;100208.44;;;2.19;99.85
66176;BME280;52977;44.816;20.538;2023-02-27T09:16:54;100121.94;;;1.61;95.52
66176;BME280;52977;44.816;20.538;2023-02-27T09:19:20;100208.91;;;2.38;91.89
66176;BME280;52977;44.816;20.538;2023-02-27T09:21:47;100192.97;;;2.09;92.37
66176;BME280;52977;44.816;20.538;2023-02-27T09:24:13;100221.66;;;2.20;95.32
66176;BME280;52977;44.816;20.538;2023-02-27T09:26:39;100220.56;;;2.16;95.05
66176;BME280;52977;44.816;20.538;2023-02-27T09:29:05;100194.78;;;1.76;96.78
66176;BME280;52977;44.816;20.538;2023-02-27T09:31:32;100219.72;;;2.16;93.70
66176;BME280;52977;44.816;20.538;2023-02-27T09:33:58;100164.06;;;1.72;90.93
66176;BME280;52977;44.816;20.538;2023-02-27T09:36:27;100174.66;;;1.57;92.52
66176;BME280;52977;44.816;20.538;2023-02-27T09:38:53;100224.00;;;1.90;95.88
66176;BME280;52977;44.816;20.538;2023-02-27T09:44:25;100207.59;;;1.91;93.71
66176;BME280;52977;44.816;20.538;2023-02-27T09:46:54;100219.72;;;1.88;91.02
66176;BME280;52977;44.816;20.538;2023-02-27T09:49:23;100240.16;;;2.12;90.20
66176;BME280;52977;44.816;20.538;2023-02-27T09:51:54;100174.50;;;1.46;90.86
66176;BME280;52977;44.816;20.538;2023-02-27T09:54:21;100127.06;;;1.18;91.02
66176;BME280;52977;44.816;20.538;2023-02-27T09:56:51;100215.25;;;1.55;92.45
66176;BME280;52977;44.816;20.538;2023-02-27T09:59:41;100252.44;;;1.80;90.41
66176;BME280;52977;44.816;20.538;2023-02-27T10:02:17;100256.63;;;1.71;88.03
66176;BME280;52977;44.816;20.538;2023-02-27T10:05:04;100163.69;;;1.19;88.57
66176;BME280;52977;44.816;20.538;2023-02-27T10:07:40;100220.94;;;1.59;86.78
66176;BME280;52977;44.816;20.538;2023-02-27T10:13:20;100257.66;;;1.65;88.61
66176;BME280;52977;44.816;20.538;2023-02-27T10:15:52;100237.41;;;1.62;89.29
66176;BME280;52977;44.816;20.538;2023-02-27T10:18:22;100245.50;;;1.84;88.56
66176;BME280;52977;44.816;20.538;2023-02-27T10:20:55;100202.09;;;1.59;89.99
66176;BME280;52977;44.816;20.538;2023-02-27T10:23:40;100255.75;;;2.10;89.68
66176;BME280;52977;44.816;20.538;2023-02-27T10:26:24;100259.44;;;2.03;88.43
66176;BME280;52977;44.816;20.538;2023-02-27T10:28:52;100177.25;;;1.29;86.77
66176;BME280;52977;44.816;20.538;2023-02-27T10:31:25;100246.38;;;1.68;91.51
66176;BME280;52977;44.816;20.538;2023-02-27T10:33:55;100221.78;;;1.59;90.36
66176;BME280;52977;44.816;20.538;2023-02-27T10:36:22;100266.78;;;1.86;90.01
66176;BME280;52977;44.816;20.538;2023-02-27T10:39:02;100263.00;;;2.09;90.27
66176;BME280;52977;44.816;20.538;2023-02-27T10:41:30;100244.84;;;1.77;90.70
66176;BME280;52977;44.816;20.538;2023-02-27T10:43:59;100161.88;;;1.25;88.26
66176;BME280;52977;44.816;20.538;2023-02-27T10:46:30;100190.81;;;1.84;87.72
66176;BME280;52977;44.816;20.538;2023-02-27T10:48:57;100257.72;;;2.42;85.51
66176;BME280;52977;44.816;20.538;2023-02-27T10:51:30;100234.75;;;2.12;86.74
66176;BME280;52977;44.816;20.538;2023-02-27T10:56:47;100264.88;;;2.31;87.50
66176;BME280;52977;44.816;20.538;2023-02-27T10:59:38;100268.41;;;2.09;91.47
66176;BME280;52977;44.816;20.538;2023-02-27T11:02:20;100261.25;;;1.98;91.77
66176;BME280;52977;44.816;20.538;2023-02-27T11:04:50;100265.09;;;2.02;92.33
66176;BME280;52977;44.816;20.538;2023-02-27T11:10:15;100205.28;;;2.00;85.79
66176;BME280;52977;44.816;20.538;2023-02-27T11:13:02;100235.19;;;2.26;84.10
66176;BME280;52977;44.816;20.538;2023-02-27T11:15:34;100230.31;;;2.22;84.21
66176;BME280;52977;44.816;20.538;2023-02-27T11:18:25;100247.28;;;2.50;83.08
66176;BME280;52977;44.816;20.538;2023-02-27T11:20:52;100218.75;;;2.27;83.80
66176;BME280;52977;44.816;20.538;2023-02-27T11:23:24;100220.28;;;2.45;89.84
66176;BME280;52977;44.816;20.538;2023-02-27T11:26:08;100227.75;;;2.38;88.16
66176;BME280;52977;44.816;20.538;2023-02-27T11:28:34;100202.94;;;2.09;87.38
66176;BME280;52977;44.816;20.538;2023-02-27T11:31:06;100249.84;;;2.35;89.13
66176;BME280;52977;44.816;20.538;2023-02-27T11:33:47;100244.81;;;2.16;89.53
66176;BME280;52977;44.816;20.538;2023-02-27T11:36:14;100246.50;;;2.00;89.71
66176;BME280;52977;44.816;20.538;2023-02-27T11:38:41;100237.25;;;2.18;87.78
66176;BME280;52977;44.816;20.538;2023-02-27T11:41:15;100229.19;;;2.18;86.10
66176;BME280;52977;44.816;20.538;2023-02-27T11:43:51;100202.84;;;1.98;86.36
66176;BME280;52977;44.816;20.538;2023-02-27T11:46:23;100274.94;;;2.41;87.12
66176;BME280;52977;44.816;20.538;2023-02-27T11:52:07;100285.03;;;2.50;89.73
66176;BME280;52977;44.816;20.538;2023-02-27T11:54:55;100273.31;;;2.39;88.02
66176;BME280;52977;44.816;20.538;2023-02-27T11:57:43;100269.63;;;2.46;86.52
66176;BME280;52977;44.816;20.538;2023-02-27T12:02:45;100296.09;;;2.54;87.80
66176;BME280;52977;44.816;20.538;2023-02-27T12:05:17;100237.34;;;2.29;85.26
66176;BME280;52977;44.816;20.538;2023-02-27T12:07:49;100298.25;;;2.52;86.49
66176;BME280;52977;44.816;20.538;2023-02-27T12:10:29;100302.13;;;2.61;86.23
66176;BME280;52977;44.816;20.538;2023-02-27T12:13:02;100235.19;;;2.26;86.55
66176;BME280;52977;44.816;20.538;2023-02-27T12:15:44;100263.53;;;2.61;84.60
66176;BME280;52977;44.816;20.538;2023-02-27T12:18:33;100295.16;;;2.98;84.04
66176;BME280;52977;44.816;20.538;2023-02-27T12:21:10;100296.22;;;2.97;84.85
66176;BME280;52977;44.816;20.538;2023-02-27T12:23:46;100290.38;;;3.05;83.24
66176;BME280;52977;44.816;20.538;2023-02-27T12:29:21;100286.66;;;3.16;83.65
66176;BME280;52977;44.816;20.538;2023-02-27T12:31:49;100296.56;;;3.43;83.84
66176;BME280;52977;44.816;20.538;2023-02-27T12:34:23;100241.50;;;3.01;83.04
66176;BME280;52977;44.816;20.538;2023-02-27T12:37:04;100300.63;;;3.08;83.80
66176;BME280;52977;44.816;20.538;2023-02-27T12:39:35;100300.81;;;2.96;83.54
66176;BME280;52977;44.816;20.538;2023-02-27T12:44:57;100305.34;;;2.90;85.13
66176;BME280;52977;44.816;20.538;2023-02-27T12:50:52;100288.84;;;2.87;86.75
66176;BME280;52977;44.816;20.538;2023-02-27T12:56:37;100299.69;;;2.92;87.40
66176;BME280;52977;44.816;20.538;2023-02-27T13:13:43;100309.88;;;2.85;85.76
66176;BME280;52977;44.816;20.538;2023-02-27T13:16:16;100268.47;;;2.69;86.61
66176;BME280;52977;44.816;20.538;2023-02-27T13:18:46;100308.53;;;2.87;87.39
66176;BME280;52977;44.816;20.538;2023-02-27T13:24:32;100325.28;;;2.89;85.87
66176;BME280;52977;44.816;20.538;2023-02-27T13:29:42;100309.66;;;2.91;87.25
66176;BME280;52977;44.816;20.538;2023-02-27T13:32:30;100327.59;;;3.03;85.62
66176;BME280;52977;44.816;20.538;2023-02-27T13:40:32;100314.50;;;2.89;86.85
66176;BME280;52977;44.816;20.538;2023-02-27T13:43:04;100318.91;;;3.01;87.43
66176;BME280;52977;44.816;20.538;2023-02-27T13:45:52;100314.00;;;2.93;87.31
66176;BME280;52977;44.816;20.538;2023-02-27T13:48:43;100312.66;;;2.95;87.16
66176;BME280;52977;44.816;20.538;2023-02-27T13:59:41;100293.28;;;2.98;87.41
66176;BME280;52977;44.816;20.538;2023-02-27T14:02:30;100296.81;;;3.04;86.84
66176;BME280;52977;44.816;20.538;2023-02-27T14:04:58;100302.78;;;3.06;86.22
66176;BME280;52977;44.816;20.538;2023-02-27T14:07:28;100284.72;;;2.74;87.26
66176;BME280;52977;44.816;20.538;2023-02-27T14:10:29;100309.38;;;2.88;89.46
66176;BME280;52977;44.816;20.538;2023-02-27T14:12:57;100295.63;;;2.89;89.48
66176;BME280;52977;44.816;20.538;2023-02-27T14:17:56;100216.38;;;2.31;89.48
66176;BME280;52977;44.816;20.538;2023-02-27T14:30:59;100303.97;;;2.88;90.87
66176;BME280;52977;44.816;20.538;2023-02-27T14:33:33;100258.22;;;2.66;90.73
66176;BME280;52977;44.816;20.538;2023-02-27T14:36:04;100266.50;;;2.91;90.25
66176;BME280;52977;44.816;20.538;2023-02-27T14:38:32;100273.84;;;2.96;91.89
66176;BME280;52977;44.816;20.538;2023-02-27T14:43:44;100259.78;;;2.94;92.36
66176;BME280;52977;44.816;20.538;2023-02-27T14:48:59;100250.09;;;2.93;91.67
66176;BME280;52977;44.816;20.538;2023-02-27T14:51:32;100275.81;;;3.06;91.53
66176;BME280;52977;44.816;20.538;2023-02-27T14:56:38;100241.50;;;2.64;91.33
66176;BME280;52977;44.816;20.538;2023-02-27T14:59:25;100286.44;;;2.85;91.95
66176;BME280;52977;44.816;20.538;2023-02-27T15:01:56;100309.81;;;3.07;93.00
66176;BME280;52977;44.816;20.538;2023-02-27T15:04:25;100312.38;;;3.24;91.10
66176;BME280;52977;44.816;20.538;2023-02-27T15:06:54;100272.81;;;3.02;89.87
66176;BME280;52977;44.816;20.538;2023-02-27T15:09:22;100302.56;;;3.13;91.15
66176;BME280;52977;44.816;20.538;2023-02-27T15:11:51;100303.66;;;2.84;90.87
66176;BME280;52977;44.816;20.538;2023-02-27T15:14:21;100276.69;;;2.79;91.24
66176;BME280;52977;44.816;20.538;2023-02-27T15:16:53;100266.81;;;2.63;91.79
66176;BME280;52977;44.816;20.538;2023-02-27T15:19:30;100272.41;;;2.56;92.46
66176;BME280;52977;44.816;20.538;2023-02-27T15:21:59;100276.75;;;2.62;92.35
66176;BME280;52977;44.816;20.538;2023-02-27T15:24:35;100302.25;;;2.77;92.98
66176;BME280;52977;44.816;20.538;2023-02-27T15:27:04;100310.50;;;2.92;92.27
66176;BME280;52977;44.816;20.538;2023-02-27T15:29:40;100318.59;;;2.92;92.07